createdAt,value
2019-05-07T00:01:06.473Z,7.78
2019-05-07T00:03:36.275Z,7.65
2019-05-07T00:06:06.141Z,8.05
2019-05-07T00:08:35.661Z,7.85
2019-05-07T00:11:05.549Z,8.45
2019-05-07T00:13:35.072Z,8.18
2019-05-07T00:16:04.687Z,8.18
2019-05-07T00:18:34.464Z,9.53
2019-05-07T00:21:04.083Z,8.23
2019-05-07T00:23:33.877Z,8.95
2019-05-07T00:26:03.590Z,8.48
2019-05-07T00:28:33.405Z,9.40
2019-05-07T00:31:03.331Z,8.18
2019-05-07T00:33:34.501Z,8.70
2019-05-07T00:36:05.753Z,8.48
2019-05-07T00:38:37.169Z,8.43
2019-05-07T00:41:12.535Z,8.40
2019-05-07T00:43:43.985Z,8.08
2019-05-07T00:46:16.357Z,8.65
2019-05-07T00:48:46.243Z,8.15
2019-05-07T00:51:23.818Z,8.00
2019-05-07T00:53:53.769Z,8.18
2019-05-07T00:56:23.449Z,8.30
2019-05-07T00:58:53.265Z,8.20
2019-05-07T01:01:23.269Z,8.08
2019-05-07T01:03:53.512Z,8.00
2019-05-07T01:06:26.386Z,6.10
2019-05-07T01:08:54.982Z,8.40
2019-05-07T01:11:24.909Z,8.30
2019-05-07T01:13:54.809Z,8.03
2019-05-07T01:16:24.715Z,9.23
2019-05-07T01:18:54.643Z,7.75
2019-05-07T01:21:24.541Z,8.30
2019-05-07T01:23:54.470Z,7.22
2019-05-07T01:26:24.383Z,8.78
2019-05-07T01:29:02.984Z,7.83
2019-05-07T01:31:37.477Z,7.95
2019-05-07T01:34:23.969Z,6.90
2019-05-07T01:36:53.494Z,7.55
2019-05-07T01:39:23.313Z,7.53
2019-05-07T01:41:53.349Z,7.60
2019-05-07T01:44:22.891Z,7.62
2019-05-07T01:46:55.279Z,7.30
2019-05-07T01:49:25.162Z,7.80
2019-05-07T01:51:55.061Z,6.93
2019-05-07T01:54:24.605Z,7.10
2019-05-07T01:56:54.474Z,7.58
2019-05-07T01:59:25.222Z,7.92
2019-05-07T02:01:56.394Z,7.97
2019-05-07T02:04:32.549Z,8.10
2019-05-07T02:07:06.535Z,7.80
2019-05-07T02:09:42.436Z,7.25
2019-05-07T02:12:16.410Z,7.90
2019-05-07T02:14:46.003Z,7.58
2019-05-07T02:17:15.593Z,7.80
2019-05-07T02:19:45.425Z,8.05
2019-05-07T02:22:14.973Z,8.38
2019-05-07T02:24:44.893Z,7.22
2019-05-07T02:27:14.764Z,8.03
2019-05-07T02:29:44.778Z,8.10
2019-05-07T02:32:14.702Z,7.83
2019-05-07T02:34:44.621Z,8.40
2019-05-07T02:37:16.154Z,8.03
2019-05-07T02:39:47.762Z,8.05
2019-05-07T02:42:17.623Z,8.30
2019-05-07T02:45:05.473Z,8.15
2019-05-07T02:47:36.080Z,7.42
2019-05-07T02:50:07.993Z,7.85
2019-05-07T02:52:43.798Z,7.95
2019-05-07T02:55:18.247Z,8.28
2019-05-07T02:57:49.105Z,8.05
2019-05-07T03:02:49.374Z,8.33
2019-05-07T03:05:19.227Z,7.20
2019-05-07T03:07:49.111Z,7.85
2019-05-07T03:10:23.749Z,8.88
2019-05-07T03:12:54.158Z,8.55
2019-05-07T03:15:24.794Z,7.78
2019-05-07T03:17:55.937Z,7.95
2019-05-07T03:20:43.979Z,8.18
2019-05-07T03:23:15.356Z,7.55
2019-05-07T03:25:49.625Z,9.13
2019-05-07T03:28:23.121Z,7.72
2019-05-07T03:31:05.969Z,8.58
2019-05-07T03:33:47.176Z,8.13
2019-05-07T03:36:16.497Z,8.58
2019-05-07T03:38:44.700Z,7.92
2019-05-07T03:41:14.523Z,7.87
2019-05-07T03:43:44.520Z,7.80
2019-05-07T03:46:16.039Z,7.70
2019-05-07T03:48:46.682Z,8.50
2019-05-07T03:51:16.259Z,8.15
2019-05-07T03:53:47.767Z,8.88
2019-05-07T03:56:17.703Z,8.08
2019-05-07T03:58:47.238Z,8.35
2019-05-07T04:01:17.311Z,8.43
2019-05-07T04:03:47.039Z,8.70
2019-05-07T04:06:16.813Z,9.23
2019-05-07T04:08:46.457Z,8.53
2019-05-07T04:11:16.050Z,8.38
2019-05-07T04:13:46.001Z,8.68
2019-05-07T04:16:16.064Z,8.30
2019-05-07T04:18:45.724Z,9.63
2019-05-07T04:21:15.269Z,9.68
2019-05-07T04:23:45.138Z,9.65
2019-05-07T04:26:25.437Z,8.93
2019-05-07T04:28:59.892Z,9.05
2019-05-07T04:31:34.175Z,9.15
2019-05-07T04:34:04.559Z,9.98
2019-05-07T04:36:35.628Z,9.50
2019-05-07T04:39:08.046Z,9.70
2019-05-07T04:41:38.090Z,9.35
2019-05-07T04:44:07.897Z,9.33
2019-05-07T04:46:37.832Z,9.48
2019-05-07T04:49:07.724Z,9.83
2019-05-07T04:51:43.360Z,8.98
2019-05-07T04:54:13.497Z,9.15
2019-05-07T04:56:43.803Z,10.10
2019-05-07T04:59:13.964Z,10.32
2019-05-07T05:01:45.494Z,11.18
2019-05-07T05:04:25.797Z,9.73
2019-05-07T05:06:46.963Z,10.82
2019-05-07T05:09:17.048Z,10.43
2019-05-07T05:11:46.769Z,10.68
2019-05-07T05:14:16.722Z,11.12
2019-05-07T05:16:46.597Z,9.77
2019-05-07T05:19:16.539Z,10.65
2019-05-07T05:21:52.867Z,9.93
2019-05-07T05:24:24.136Z,9.93
2019-05-07T05:26:53.672Z,10.40
2019-05-07T05:29:23.561Z,10.50
2019-05-07T05:31:53.466Z,9.95
2019-05-07T05:34:23.394Z,10.15
2019-05-07T05:36:53.362Z,10.93
2019-05-07T05:39:23.266Z,10.43
2019-05-07T05:41:54.761Z,10.82
2019-05-07T05:44:34.600Z,10.00
2019-05-07T05:47:04.486Z,10.78
2019-05-07T05:49:34.325Z,11.03
2019-05-07T05:52:12.433Z,10.93
2019-05-07T05:54:44.007Z,10.35
2019-05-07T05:57:32.312Z,10.55
2019-05-07T06:00:09.822Z,10.82
2019-05-07T06:02:44.162Z,9.40
2019-05-07T06:05:34.236Z,10.72
2019-05-07T06:11:15.809Z,10.43
2019-05-07T06:13:53.139Z,9.88
2019-05-07T06:16:27.334Z,11.03
2019-05-07T06:19:08.144Z,11.68
2019-05-07T06:21:41.771Z,10.53
2019-05-07T06:24:12.661Z,11.33
2019-05-07T06:26:42.614Z,10.90
2019-05-07T06:29:12.497Z,10.30
2019-05-07T06:31:42.233Z,11.03
2019-05-07T06:34:12.442Z,11.25
2019-05-07T06:36:42.680Z,11.18
2019-05-07T06:39:14.649Z,11.63
2019-05-07T06:45:02.930Z,11.35
2019-05-07T06:47:34.833Z,11.35
2019-05-07T06:50:07.022Z,12.35
2019-05-07T06:52:36.702Z,11.08
2019-05-07T06:55:07.089Z,10.80
2019-05-07T06:57:37.421Z,10.55
2019-05-07T07:00:16.393Z,9.73
2019-05-07T07:02:47.830Z,11.43
2019-05-07T07:05:34.965Z,10.45
2019-05-07T07:08:18.626Z,11.28
2019-05-07T07:13:42.635Z,10.58
2019-05-07T07:16:12.773Z,9.68
2019-05-07T07:18:52.069Z,10.05
2019-05-07T07:21:14.177Z,10.60
2019-05-07T07:23:44.078Z,10.93
2019-05-07T07:26:14.015Z,9.00
2019-05-07T07:28:43.949Z,9.25
2019-05-07T07:31:22.630Z,10.20
2019-05-07T07:33:54.389Z,8.78
2019-05-07T07:36:26.020Z,9.00
2019-05-07T07:38:55.857Z,9.05
2019-05-07T07:41:36.689Z,9.18
2019-05-07T07:44:06.808Z,8.78
2019-05-07T07:46:37.073Z,9.35
2019-05-07T07:49:11.481Z,8.65
2019-05-07T07:51:42.170Z,9.30
2019-05-07T07:54:10.099Z,9.83
2019-05-07T07:56:50.056Z,9.80
2019-05-07T07:59:24.153Z,8.78
2019-05-07T08:01:55.409Z,9.45
2019-05-07T08:04:25.314Z,8.83
2019-05-07T08:07:03.642Z,11.12
2019-05-07T08:09:37.559Z,9.48
2019-05-07T08:12:07.717Z,9.80
2019-05-07T08:14:37.725Z,9.73
2019-05-07T08:17:08.970Z,10.10
2019-05-07T08:19:38.721Z,10.00
2019-05-07T08:22:08.264Z,9.68
2019-05-07T08:24:38.155Z,9.95
2019-05-07T08:27:08.101Z,10.80
2019-05-07T08:29:37.980Z,10.65
2019-05-07T08:32:18.376Z,9.93
2019-05-07T08:34:55.544Z,10.23
2019-05-07T08:37:25.350Z,8.80
2019-05-07T08:39:56.135Z,7.92
2019-05-07T08:45:03.046Z,8.83
2019-05-07T08:47:34.513Z,9.03
2019-05-07T08:50:06.169Z,8.70
2019-05-07T08:52:36.045Z,8.28
2019-05-07T08:55:09.120Z,7.80
2019-05-07T08:57:41.936Z,8.50
2019-05-07T09:00:32.675Z,6.75
2019-05-07T09:03:02.741Z,6.62
2019-05-07T09:05:32.468Z,7.40
2019-05-07T09:08:02.509Z,6.83
2019-05-07T09:10:32.636Z,5.67
2019-05-07T09:13:02.815Z,6.22
2019-05-07T09:15:32.562Z,6.40
2019-05-07T09:18:02.170Z,5.53
2019-05-07T09:20:32.309Z,6.20
2019-05-07T09:23:02.223Z,6.20
2019-05-07T09:25:33.570Z,6.40
2019-05-07T09:28:03.572Z,7.55
2019-05-07T09:30:42.119Z,6.57
2019-05-07T09:33:13.548Z,6.33
2019-05-07T09:35:45.083Z,6.25
2019-05-07T09:38:14.998Z,5.85
2019-05-07T09:40:44.912Z,5.90
2019-05-07T09:43:14.876Z,5.73
2019-05-07T09:45:44.821Z,4.73
2019-05-07T09:48:14.734Z,5.20
2019-05-07T09:50:44.573Z,5.07
2019-05-07T09:53:14.469Z,5.92
2019-05-07T09:55:44.403Z,5.90
2019-05-07T09:58:14.364Z,4.57
2019-05-07T10:00:44.284Z,5.37
2019-05-07T10:03:14.272Z,6.17
2019-05-07T10:05:44.111Z,5.63
2019-05-07T10:08:14.248Z,5.28
2019-05-07T10:10:45.662Z,5.53
2019-05-07T10:13:19.941Z,5.50
2019-05-07T10:15:49.545Z,5.42
2019-05-07T10:18:19.633Z,6.12
2019-05-07T10:20:49.424Z,5.15
2019-05-07T10:23:23.141Z,5.53
2019-05-07T10:25:53.837Z,6.17
2019-05-07T10:28:23.637Z,5.25
2019-05-07T10:30:54.194Z,5.75
2019-05-07T10:33:24.080Z,5.08
2019-05-07T10:35:53.755Z,5.92
2019-05-07T10:38:24.030Z,5.80
2019-05-07T10:40:53.977Z,5.15
2019-05-07T10:43:23.830Z,5.63
2019-05-07T10:45:58.317Z,5.33
2019-05-07T10:48:32.505Z,5.85
2019-05-07T10:51:06.185Z,5.75
2019-05-07T10:53:35.872Z,5.03
2019-05-07T10:56:05.865Z,5.03
2019-05-07T10:58:35.703Z,5.40
2019-05-07T11:01:07.033Z,5.00
2019-05-07T11:03:36.757Z,5.10
2019-05-07T11:06:06.790Z,5.47
2019-05-07T11:08:36.593Z,6.80
2019-05-07T11:11:25.486Z,5.78
2019-05-07T11:13:56.125Z,5.97
2019-05-07T11:18:56.301Z,5.03
2019-05-07T11:21:33.264Z,5.37
2019-05-07T11:24:03.661Z,5.37
2019-05-07T11:26:33.468Z,6.07
2019-05-07T11:29:03.353Z,5.75
2019-05-07T11:31:33.379Z,5.70
2019-05-07T11:34:03.247Z,6.95
2019-05-07T11:36:34.406Z,6.30
2019-05-07T11:39:06.486Z,6.37
2019-05-07T11:41:46.897Z,6.40
2019-05-07T11:44:18.388Z,6.03
2019-05-07T11:46:58.873Z,5.65
2019-05-07T11:49:32.624Z,5.83
2019-05-07T11:52:03.290Z,6.00
2019-05-07T11:54:33.221Z,6.10
2019-05-07T11:57:03.154Z,6.03
2019-05-07T11:59:33.045Z,6.57
2019-05-07T12:02:04.585Z,5.30
2019-05-07T12:04:53.458Z,6.78
2019-05-07T12:07:23.329Z,6.50
2019-05-07T12:09:53.192Z,6.12
2019-05-07T12:12:23.112Z,6.67
2019-05-07T12:14:53.009Z,6.20
2019-05-07T12:17:23.006Z,5.80
2019-05-07T12:19:52.842Z,6.25
2019-05-07T12:22:42.435Z,5.58
2019-05-07T12:25:22.808Z,6.00
2019-05-07T12:27:53.210Z,5.85
2019-05-07T12:30:42.822Z,5.60
2019-05-07T12:33:20.178Z,5.70
2019-05-07T12:35:50.077Z,5.72
2019-05-07T12:38:21.963Z,6.85
2019-05-07T12:40:52.404Z,6.15
2019-05-07T12:43:22.276Z,6.90
2019-05-07T12:45:52.458Z,6.40
2019-05-07T12:48:22.525Z,5.60
2019-05-07T12:50:52.437Z,6.33
2019-05-07T12:53:31.452Z,6.10
2019-05-07T12:56:02.922Z,6.05
2019-05-07T12:58:32.488Z,6.25
2019-05-07T13:01:06.751Z,5.87
2019-05-07T13:03:42.804Z,6.42
2019-05-07T13:06:12.556Z,5.87
2019-05-07T13:08:42.477Z,6.20
2019-05-07T13:11:13.241Z,6.67
2019-05-07T13:13:44.301Z,7.50
2019-05-07T13:18:42.865Z,6.97
2019-05-07T13:21:12.959Z,6.97
2019-05-07T13:23:42.688Z,6.55
2019-05-07T13:26:12.871Z,6.40
2019-05-07T13:28:44.332Z,6.45
2019-05-07T13:31:14.105Z,6.65
2019-05-07T13:33:45.742Z,6.97
2019-05-07T13:36:15.814Z,7.30
2019-05-07T13:38:47.175Z,6.58
2019-05-07T13:41:24.045Z,6.12
2019-05-07T13:44:02.964Z,5.83
2019-05-07T13:46:34.631Z,5.62
2019-05-07T13:49:04.444Z,5.87
2019-05-07T13:51:35.651Z,6.80
2019-05-07T13:54:05.568Z,5.92
2019-05-07T13:56:35.422Z,6.90
2019-05-07T13:59:05.385Z,6.77
2019-05-07T14:01:36.917Z,6.95
2019-05-07T14:04:06.825Z,6.42
2019-05-07T14:06:39.143Z,5.67
2019-05-07T14:09:12.589Z,7.37
2019-05-07T14:11:42.418Z,6.67
2019-05-07T14:14:12.417Z,7.03
2019-05-07T14:16:44.981Z,6.37
2019-05-07T14:19:14.165Z,7.75
2019-05-07T14:21:43.924Z,6.97
2019-05-07T14:24:14.842Z,6.83
2019-05-07T14:26:44.571Z,7.25
2019-05-07T14:29:14.498Z,7.65
2019-05-07T14:31:45.296Z,7.17
2019-05-07T14:36:56.141Z,8.15
2019-05-07T14:39:26.044Z,7.85
2019-05-07T14:41:57.585Z,8.45
2019-05-07T14:44:45.515Z,8.68
2019-05-07T14:47:16.267Z,7.55
2019-05-07T14:49:46.616Z,7.55
2019-05-07T14:52:28.956Z,7.50
2019-05-07T14:54:48.121Z,7.70
2019-05-07T14:57:18.126Z,7.77
2019-05-07T14:59:48.018Z,7.65
2019-05-07T15:02:18.014Z,7.23
2019-05-07T15:04:47.992Z,7.70
2019-05-07T15:07:18.906Z,7.33
2019-05-07T15:09:51.754Z,8.25
2019-05-07T15:12:23.072Z,7.17
2019-05-07T15:14:52.969Z,7.58
2019-05-07T15:17:28.561Z,7.70
2019-05-07T15:19:58.473Z,6.60
2019-05-07T15:22:45.495Z,7.03
2019-05-07T15:25:02.880Z,6.72
2019-05-07T15:27:52.682Z,6.67
2019-05-07T15:30:24.433Z,6.92
2019-05-07T15:32:54.206Z,6.03
2019-05-07T15:35:24.068Z,5.60
2019-05-07T15:37:54.029Z,6.07
2019-05-07T15:40:23.881Z,5.62
2019-05-07T15:42:53.784Z,5.97
2019-05-07T15:45:23.732Z,5.57
2019-05-07T15:47:55.265Z,5.57
2019-05-07T15:50:26.907Z,5.35
2019-05-07T15:53:12.272Z,4.67
2019-05-07T15:55:41.857Z,5.55
2019-05-07T15:58:12.135Z,5.13
2019-05-07T16:00:42.657Z,8.13
2019-05-07T16:03:13.986Z,4.85
2019-05-07T16:05:43.925Z,7.17
2019-05-07T16:08:15.474Z,6.90
2019-05-07T16:10:45.393Z,6.40
2019-05-07T16:13:17.002Z,7.00
2019-05-07T16:15:46.881Z,4.70
2019-05-07T16:18:32.516Z,5.30
2019-05-07T16:21:02.135Z,6.10
2019-05-07T16:23:33.386Z,4.78
2019-05-07T16:26:05.315Z,5.50
2019-05-07T16:28:34.921Z,4.35
2019-05-07T16:31:04.773Z,4.90
2019-05-07T16:33:34.921Z,4.37
2019-05-07T16:36:04.604Z,4.53
2019-05-07T16:38:34.536Z,4.17
2019-05-07T16:41:04.908Z,4.17
2019-05-07T16:43:34.762Z,5.17
2019-05-07T16:46:04.732Z,4.35
2019-05-07T16:48:34.596Z,4.65
2019-05-07T16:51:04.586Z,4.37
2019-05-07T16:53:36.319Z,4.37
2019-05-07T16:56:05.933Z,4.65
2019-05-07T16:58:49.252Z,4.20
2019-05-07T17:01:18.961Z,3.70
2019-05-07T17:03:52.086Z,4.20
2019-05-07T17:06:25.045Z,4.33
2019-05-07T17:09:02.632Z,4.60
2019-05-07T17:11:32.481Z,5.33
2019-05-07T17:14:02.419Z,4.80
2019-05-07T17:16:32.296Z,4.35
2019-05-07T17:19:02.534Z,4.25
2019-05-07T17:21:32.694Z,3.80
2019-05-07T17:24:02.745Z,4.20
2019-05-07T17:26:32.401Z,3.77
2019-05-07T17:29:02.682Z,3.98
2019-05-07T17:31:32.759Z,4.30
2019-05-07T17:34:22.171Z,4.10
2019-05-07T17:36:52.466Z,4.00
2019-05-07T17:39:22.715Z,3.92
2019-05-07T17:41:52.378Z,3.75
2019-05-07T17:44:23.294Z,7.97
2019-05-07T17:46:53.052Z,4.30
2019-05-07T17:49:23.040Z,3.52
2019-05-07T17:51:52.954Z,3.63
2019-05-07T17:54:22.877Z,3.55
2019-05-07T17:57:14.288Z,3.80
2019-05-07T17:59:43.213Z,3.87
2019-05-07T18:02:22.007Z,4.37
2019-05-07T18:04:54.553Z,4.45
2019-05-07T18:07:23.196Z,4.33
2019-05-07T18:09:53.041Z,4.20
2019-05-07T18:12:22.961Z,4.03
2019-05-07T18:14:52.946Z,4.00
2019-05-07T18:17:24.430Z,4.03
2019-05-07T18:19:54.440Z,3.60
2019-05-07T18:22:25.096Z,4.10
2019-05-07T18:24:55.006Z,3.55
2019-05-07T18:27:25.180Z,4.00
2019-05-07T18:29:54.835Z,4.17
2019-05-07T18:32:26.849Z,4.15
2019-05-07T18:34:56.726Z,3.92
2019-05-07T18:37:26.617Z,5.05
2019-05-07T18:39:56.579Z,5.53
2019-05-07T18:42:26.434Z,4.17
2019-05-07T18:44:55.969Z,3.98
2019-05-07T18:47:25.857Z,3.83
2019-05-07T18:49:55.833Z,4.37
2019-05-07T18:52:25.701Z,4.67
2019-05-07T18:54:55.622Z,5.12
2019-05-07T18:57:25.524Z,4.60
2019-05-07T18:59:55.074Z,4.33
2019-05-07T19:02:25.085Z,4.67
2019-05-07T19:04:54.953Z,6.00
2019-05-07T19:07:24.769Z,4.95
2019-05-07T19:09:54.698Z,15.20
2019-05-07T19:12:25.980Z,9.80
2019-05-07T19:14:55.893Z,24.32
2019-05-07T19:17:25.862Z,13.98
2019-05-07T19:19:55.705Z,27.30
2019-05-07T19:22:25.598Z,10.78
2019-05-07T19:24:55.501Z,6.10
2019-05-07T19:27:25.461Z,5.78
2019-05-07T19:29:55.339Z,5.43
2019-05-07T19:32:29.435Z,5.33
2019-05-07T19:34:59.256Z,4.55
2019-05-07T19:37:29.197Z,4.33
2019-05-07T19:40:01.895Z,4.67
2019-05-07T19:42:31.921Z,4.40
2019-05-07T19:45:02.667Z,4.67
2019-05-07T19:47:32.811Z,4.95
2019-05-07T19:50:03.030Z,9.38
2019-05-07T19:52:33.236Z,9.33
2019-05-07T19:55:04.779Z,8.18
2019-05-07T19:57:39.736Z,6.55
2019-05-07T20:00:12.013Z,5.22
2019-05-07T20:02:49.508Z,4.70
2019-05-07T20:05:19.101Z,4.37
2019-05-07T20:07:49.045Z,4.17
2019-05-07T20:10:20.655Z,4.70
2019-05-07T20:12:52.167Z,4.78
2019-05-07T20:15:22.449Z,3.98
2019-05-07T20:17:52.666Z,4.72
2019-05-07T20:20:22.393Z,4.37
2019-05-07T20:22:52.221Z,5.05
2019-05-07T20:25:22.641Z,4.25
2019-05-07T20:27:52.711Z,5.05
2019-05-07T20:30:22.957Z,4.53
2019-05-07T20:32:52.694Z,5.37
2019-05-07T20:35:22.725Z,5.17
2019-05-07T20:37:52.522Z,4.93
2019-05-07T20:40:22.749Z,5.30
2019-05-07T20:42:52.883Z,4.55
2019-05-07T20:45:23.868Z,4.60
2019-05-07T20:47:54.129Z,4.55
2019-05-07T20:50:23.803Z,5.12
2019-05-07T20:52:53.690Z,5.00
2019-05-07T20:55:33.909Z,5.12
2019-05-07T20:58:03.201Z,5.40
2019-05-07T21:00:32.911Z,5.10
2019-05-07T21:03:23.343Z,4.62
2019-05-07T21:05:53.409Z,5.17
2019-05-07T21:08:23.435Z,5.08
2019-05-07T21:10:53.709Z,4.25
2019-05-07T21:13:30.830Z,5.78
2019-05-07T21:15:55.255Z,4.97
2019-05-07T21:18:26.753Z,5.40
2019-05-07T21:20:56.284Z,5.97
2019-05-07T21:23:26.715Z,5.97
2019-05-07T21:25:56.666Z,5.67
2019-05-07T21:28:26.549Z,5.45
2019-05-07T21:30:56.478Z,5.70
2019-05-07T21:33:26.377Z,5.70
2019-05-07T21:35:56.314Z,5.95
2019-05-07T21:38:26.610Z,6.00
2019-05-07T21:40:56.540Z,6.30
2019-05-07T21:43:26.441Z,5.33
2019-05-07T21:45:56.407Z,5.95
2019-05-07T21:48:26.260Z,5.70
2019-05-07T21:50:56.452Z,5.35
2019-05-07T21:53:32.218Z,5.40
2019-05-07T21:56:15.100Z,6.10
2019-05-07T21:58:49.212Z,5.72
2019-05-07T22:01:21.878Z,6.00
2019-05-07T22:03:53.600Z,5.60
2019-05-07T22:06:23.597Z,5.17
2019-05-07T22:08:54.840Z,5.40
2019-05-07T22:11:25.822Z,4.85
2019-05-07T22:13:55.791Z,5.00
2019-05-07T22:16:25.705Z,5.50
2019-05-07T22:18:55.544Z,4.85
2019-05-07T22:21:25.488Z,4.70
2019-05-07T22:23:55.377Z,5.30
2019-05-07T22:26:26.568Z,4.87
2019-05-07T22:28:56.424Z,5.30
2019-05-07T22:31:37.000Z,4.83
2019-05-07T22:34:23.884Z,4.25
2019-05-07T22:36:55.051Z,4.53
2019-05-07T22:39:24.826Z,4.50
2019-05-07T22:41:55.917Z,3.62
2019-05-07T22:44:26.475Z,3.70
2019-05-07T22:46:58.256Z,4.37
2019-05-07T22:49:28.177Z,4.53
2019-05-07T22:51:58.046Z,4.78
2019-05-07T22:54:27.941Z,5.25
2019-05-07T22:57:13.955Z,4.67
2019-05-07T22:59:43.370Z,4.58
2019-05-07T23:02:13.037Z,5.00
2019-05-07T23:04:43.228Z,5.15
2019-05-07T23:07:13.079Z,5.15
2019-05-07T23:09:44.897Z,4.83
2019-05-07T23:12:14.137Z,4.67
2019-05-07T23:14:44.854Z,5.45
2019-05-07T23:17:14.389Z,5.40
2019-05-07T23:19:43.921Z,4.70
2019-05-07T23:22:13.912Z,5.40
2019-05-07T23:24:43.801Z,5.40
2019-05-07T23:27:14.852Z,6.00
2019-05-07T23:29:44.902Z,5.10
2019-05-07T23:32:16.896Z,5.50
2019-05-07T23:34:46.749Z,5.70
2019-05-07T23:37:16.697Z,6.15
2019-05-07T23:39:48.201Z,5.57
2019-05-07T23:42:37.837Z,6.47
2019-05-07T23:45:07.943Z,5.97
2019-05-07T23:47:37.650Z,6.33
2019-05-07T23:50:07.584Z,6.15
2019-05-07T23:52:37.459Z,6.20
2019-05-07T23:55:07.585Z,6.17
2019-05-07T23:57:37.281Z,5.78
